Quebec, Quebec

3:32 AM EDT on May 01, 2017 (GMT -0400)
Quebec | | Change Station

Elev 240 ft 46.80 °N, 71.38 °W | Updated 32 minutes ago

Rain
Rain
41 °F
Feels Like 35 °F
N
9
Wind Variable Wind from ENE

Today
High -- | Low -- °F
--% Chance of Precip.
Yesterday
High -- | Low -- °F
Precip. -- in
Pressure 30.15 in
Visibility 4.0 miles
Clouds Few 1500 ft
Overcast 2200 ft
Windchill 35 °F
Dew Point 37 °F
Humidity 87%
Rainfall 0.00 in
Snow Depth Not available.
5:30 AM 7:55 PM
Waxing Crescent, 30% visible
METAR CYQB 010700Z 07008KT 4SM -RA BR FEW015 OVC022 05/03 A3014 RMK SC1SC7 SLP210
Pressure 30.15 in
Visibility 4.0 miles
Clouds Few 1500 ft
Overcast 2200 ft
Windchill 35 °F
Dew Point 37 °F
Humidity 87%
Rainfall 0.00 in
Snow Depth Not available.
5:30 AM 7:55 PM
Waxing Crescent, 30% visible
METAR CYQB 010700Z 07008KT 4SM -RA BR FEW015 OVC022 05/03 A3014 RMK SC1SC7 SLP210

Get Severe Weather Alerts

Thanks for signing up!

Be on the lookout for a verification email in your inbox.

You'll start receiving the daily forecast at 8 AM.

×

10-Day Weather Forecast

Almanac

Astronomy

May. 01, 2017 Rise Set
Actual Time
Civil Twilight
Nautical Twilight
Astronomical Twilight
Moon
Length of Visible Light
Length of Day
Tomorrow will be .
, % of the Moon is Illuminated

Today's Extremes

Country Highs Country Lows

Community

WunderPhotos

WunderBlog® & News

Nearby

Air Quality

  Air Quality AQ Index Pollutant
Not available.

Snow Depth

Station Depth Elevation

Earthquake Activity

City Distance Mag. Time & Date
Minimum magnitude displayed is 2.5.

Coastal Water Temperatures

Place Temperature

Stations

Nearby Weather Stations

Station Location Temp. Windchill Dew Point Humidity Wind Precip. Elev Updated Type
                   

Watches & Warnings

There are currently no watches in effect.